Kilaguni Airport


Codes: HKKL/ILU
Name: Kilaguni Airport
City: Kilaguni
Country: Kenya
Elevation: 2750 ft.

Photos at Kilaguni Airport


   Photos courtesy of SpottingLog. You can add your own sightings and photos by signing up for a free trial today.



No photos found.

Weather at Kilaguni Airport


Time (UTC)DescriptionTempratureWindCloud coverageVisibilityPressureHumidity
19-Apr-2024 03:00Overcast Clouds20°C4 mph, SW100%10000m1014hPa90%
19-Apr-2024 06:00Overcast Clouds21°C7 mph, SW96%10000m1014hPa85%
19-Apr-2024 09:00Overcast Clouds25°C11 mph, S92%10000m1013hPa70%
19-Apr-2024 12:00Overcast Clouds27°C9 mph, S94%10000m1010hPa59%
19-Apr-2024 15:00Light Rain26°C4 mph, SE100%10000m1010hPa69%
19-Apr-2024 18:00Light Rain23°C4 mph, SE100%10000m1013hPa83%
19-Apr-2024 21:00Light Rain22°C4 mph, SW99%10000m1012hPa86%
20-Apr-2024 00:00Overcast Clouds21°C4 mph, SW98%10000m1011hPa91%
20-Apr-2024 03:00Broken Clouds20°C7 mph, SW58%10000m1012hPa92%
20-Apr-2024 06:00Broken Clouds24°C9 mph, SW73%10000m1014hPa74%
20-Apr-2024 09:00Broken Clouds28°C11 mph, S84%10000m1011hPa60%
20-Apr-2024 12:00Overcast Clouds29°C11 mph, S86%10000m1008hPa55%
20-Apr-2024 15:00Light Rain26°C7 mph, S81%10000m1009hPa71%
20-Apr-2024 18:00Light Rain23°C7 mph, SE87%10000m1012hPa82%
20-Apr-2024 21:00Light Rain22°C4 mph, S100%10000m1012hPa86%
21-Apr-2024 00:00Overcast Clouds21°C4 mph, SW100%10000m1011hPa91%
21-Apr-2024 03:00Overcast Clouds20°C7 mph, SW98%10000m1012hPa90%
21-Apr-2024 06:00Overcast Clouds24°C9 mph, SW99%10000m1014hPa72%
21-Apr-2024 09:00Overcast Clouds28°C9 mph, S95%10000m1012hPa57%
21-Apr-2024 12:00Overcast Clouds29°C7 mph, S95%10000m1009hPa53%
21-Apr-2024 15:00Overcast Clouds26°C7 mph, SE100%10000m1009hPa64%
21-Apr-2024 18:00Light Rain24°C4 mph, SE100%10000m1012hPa74%
21-Apr-2024 21:00Overcast Clouds22°C4 mph, SW94%10000m1013hPa85%
22-Apr-2024 00:00Overcast Clouds21°C4 mph, SW97%10000m1011hPa89%
22-Apr-2024 03:00Overcast Clouds21°C4 mph, SW100%10000m1013hPa90%
22-Apr-2024 06:00Overcast Clouds24°C7 mph, SW99%10000m1014hPa73%
22-Apr-2024 09:00Broken Clouds28°C9 mph, S60%10000m1012hPa56%
22-Apr-2024 12:00Light Rain28°C9 mph, SE62%10000m1009hPa55%
22-Apr-2024 15:00Light Rain25°C7 mph, SE92%10000m1010hPa74%
22-Apr-2024 18:00Light Rain22°C4 mph, S68%10000m1012hPa85%
22-Apr-2024 21:00Scattered Clouds21°C4 mph, SW40%10000m1013hPa89%
23-Apr-2024 00:00Scattered Clouds21°C4 mph, SW45%10000m1012hPa91%
23-Apr-2024 03:00Scattered Clouds20°C4 mph, SW33%10000m1013hPa91%
23-Apr-2024 06:00Scattered Clouds24°C7 mph, SW32%10000m1014hPa72%
23-Apr-2024 09:00Broken Clouds27°C9 mph, S82%10000m1012hPa61%
23-Apr-2024 12:00Broken Clouds30°C7 mph, S62%10000m1008hPa51%
23-Apr-2024 15:00Light Rain27°C4 mph, S85%10000m1009hPa64%
23-Apr-2024 18:00Overcast Clouds24°C4 mph, S89%10000m1011hPa74%
23-Apr-2024 21:00Overcast Clouds22°C4 mph, SW100%10000m1012hPa80%
24-Apr-2024 00:00Overcast Clouds21°C7 mph, SW100%10000m1010hPa86%